createdAt,value
2018-12-23T00:00:51.322Z,80.21
2018-12-23T00:01:51.215Z,80.83
2018-12-23T00:02:51.275Z,80.83
2018-12-23T00:03:51.298Z,80.93
2018-12-23T00:04:51.207Z,80.73
2018-12-23T00:05:51.174Z,80.52
2018-12-23T00:06:51.208Z,80.11
2018-12-23T00:07:51.153Z,80.62
2018-12-23T00:08:51.157Z,80.42
2018-12-23T00:09:51.147Z,80.73
2018-12-23T00:10:51.170Z,80.83
2018-12-23T00:11:51.126Z,80.83
2018-12-23T00:12:51.094Z,80.62
2018-12-23T00:13:51.127Z,80.83
2018-12-23T00:14:51.067Z,80.62
2018-12-23T00:15:51.988Z,80.69
2018-12-23T00:16:51.043Z,80.83
2018-12-23T00:17:51.091Z,80.62
2018-12-23T00:18:51.077Z,80.90
2018-12-23T00:19:51.052Z,80.79
2018-12-23T00:20:51.004Z,80.69
2018-12-23T00:21:51.000Z,80.18
2018-12-23T00:22:50.981Z,80.90
2018-12-23T00:23:51.119Z,81.00
2018-12-23T00:24:50.977Z,80.28
2018-12-23T00:25:50.949Z,80.38
2018-12-23T00:26:50.951Z,80.07
2018-12-23T00:27:50.934Z,80.38
2018-12-23T00:28:51.030Z,80.18
2018-12-23T00:29:50.903Z,81.00
2018-12-23T00:30:50.920Z,80.38
2018-12-23T00:31:50.875Z,80.48
2018-12-23T00:32:50.934Z,81.00
2018-12-23T00:33:50.860Z,80.90
2018-12-23T00:34:50.906Z,80.90
2018-12-23T00:35:50.832Z,80.48
2018-12-23T00:36:50.859Z,81.04
2018-12-23T00:37:50.814Z,80.83
2018-12-23T00:38:50.834Z,81.04
2018-12-23T00:39:50.821Z,80.42
2018-12-23T00:40:50.779Z,80.83
2018-12-23T00:41:50.827Z,80.90
2018-12-23T00:42:50.748Z,81.21
2018-12-23T00:43:50.806Z,81.04
2018-12-23T00:44:50.747Z,81.21
2018-12-23T00:45:50.799Z,80.58
2018-12-23T00:46:50.713Z,81.00
2018-12-23T00:47:50.754Z,80.90
2018-12-23T00:48:50.695Z,80.38
2018-12-23T00:49:50.791Z,80.38
2018-12-23T00:50:50.667Z,81.10
2018-12-23T00:51:50.695Z,80.90
2018-12-23T00:52:50.792Z,80.38
2018-12-23T00:53:50.651Z,80.79
2018-12-23T00:54:51.487Z,80.69
2018-12-23T00:55:50.602Z,80.69
2018-12-23T00:56:51.493Z,80.90
2018-12-23T00:57:50.578Z,81.10
2018-12-23T00:58:51.491Z,80.48
2018-12-23T00:59:50.568Z,80.38
2018-12-23T01:00:51.490Z,81.00
2018-12-23T01:01:50.541Z,80.90
2018-12-23T01:02:50.612Z,79.83
2018-12-23T01:03:50.532Z,80.14
2018-12-23T01:04:50.556Z,80.96
2018-12-23T01:05:50.542Z,80.65
2018-12-23T01:06:50.528Z,80.65
2018-12-23T01:07:50.503Z,79.93
2018-12-23T01:08:50.464Z,80.24
2018-12-23T01:09:50.547Z,79.41
2018-12-23T01:10:50.475Z,79.62
2018-12-23T01:11:51.032Z,79.93
2018-12-23T01:12:50.408Z,79.93
2018-12-23T01:13:50.467Z,80.34
2018-12-23T01:14:50.416Z,80.14
2018-12-23T01:15:50.469Z,80.34
2018-12-23T01:16:50.376Z,80.18
2018-12-23T01:17:51.006Z,80.24
2018-12-23T01:18:50.367Z,80.04
2018-12-23T01:19:51.126Z,80.04
2018-12-23T01:20:50.375Z,79.93
2018-12-23T01:21:51.070Z,79.93
2018-12-23T01:22:50.381Z,79.11
2018-12-23T01:23:50.286Z,78.90
2018-12-23T01:24:50.307Z,78.90
2018-12-23T01:25:50.274Z,79.41
2018-12-23T01:26:51.998Z,79.31
2018-12-23T01:27:50.239Z,79.66
2018-12-23T01:28:50.987Z,79.45
2018-12-23T01:29:50.221Z,79.97
2018-12-23T01:30:50.318Z,79.97
2018-12-23T01:31:50.233Z,80.38
2018-12-23T01:32:50.300Z,80.90
2018-12-23T01:33:50.182Z,81.10
2018-12-23T01:34:50.252Z,81.00
2018-12-23T01:35:50.185Z,79.97
2018-12-23T01:36:50.151Z,79.86
2018-12-23T01:37:50.225Z,79.76
2018-12-23T01:38:50.118Z,79.97
2018-12-23T01:39:50.992Z,79.97
2018-12-23T01:40:50.098Z,79.76
2018-12-23T01:41:50.163Z,79.97
2018-12-23T01:42:50.072Z,79.97
2018-12-23T01:43:50.133Z,79.97
2018-12-23T01:44:50.084Z,80.24
2018-12-23T01:45:50.154Z,80.04
2018-12-23T01:46:50.057Z,79.76
2018-12-23T01:47:50.043Z,79.31
2018-12-23T01:48:50.015Z,79.66
2018-12-23T01:49:50.015Z,79.76
2018-12-23T01:50:50.165Z,79.35
2018-12-23T01:51:50.006Z,79.97
2018-12-23T01:52:50.493Z,79.97
2018-12-23T01:53:49.971Z,79.97
2018-12-23T01:54:49.976Z,80.18
2018-12-23T01:55:49.958Z,79.97
2018-12-23T01:56:49.987Z,81.10
2018-12-23T01:57:49.909Z,80.90
2018-12-23T01:58:49.947Z,80.83
2018-12-23T01:59:49.884Z,80.69
2018-12-23T02:00:49.940Z,80.79
2018-12-23T02:01:49.876Z,80.69
2018-12-23T02:02:49.905Z,80.48
2018-12-23T02:03:49.831Z,80.69
2018-12-23T02:04:49.836Z,80.69
2018-12-23T02:05:49.850Z,80.90
2018-12-23T02:06:49.857Z,79.55
2018-12-23T02:07:49.821Z,79.86
2018-12-23T02:08:50.492Z,80.18
2018-12-23T02:09:49.799Z,80.48
2018-12-23T02:10:49.769Z,80.18
2018-12-23T02:11:49.793Z,80.32
2018-12-23T02:12:49.742Z,80.28
2018-12-23T02:13:49.722Z,80.69
2018-12-23T02:14:49.727Z,80.79
2018-12-23T02:15:49.730Z,80.79
2018-12-23T02:16:49.689Z,80.73
2018-12-23T02:17:49.688Z,80.62
2018-12-23T02:18:49.656Z,80.52
2018-12-23T02:19:49.671Z,81.35
2018-12-23T02:20:49.635Z,81.14
2018-12-23T02:21:49.658Z,81.14
2018-12-23T02:22:49.611Z,81.24
2018-12-23T02:23:49.651Z,81.56
2018-12-23T02:24:49.592Z,81.35
2018-12-23T02:25:49.597Z,81.66
2018-12-23T02:26:49.605Z,81.35
2018-12-23T02:27:49.562Z,81.56
2018-12-23T02:28:49.559Z,81.24
2018-12-23T02:29:49.538Z,81.35
2018-12-23T02:30:49.528Z,81.14
2018-12-23T02:31:49.513Z,81.14
2018-12-23T02:32:49.543Z,81.35
2018-12-23T02:33:49.492Z,81.45
2018-12-23T02:34:49.509Z,81.45
2018-12-23T02:35:55.506Z,81.66
2018-12-23T02:36:50.457Z,81.96
2018-12-23T02:37:49.463Z,81.86
2018-12-23T02:38:49.450Z,81.96
2018-12-23T02:39:49.445Z,81.66
2018-12-23T02:40:49.414Z,81.62
2018-12-23T02:41:49.406Z,81.45
2018-12-23T02:42:49.408Z,81.76
2018-12-23T02:43:49.393Z,81.76
2018-12-23T02:44:49.405Z,82.17
2018-12-23T02:45:49.374Z,82.17
2018-12-23T02:46:49.344Z,82.03
2018-12-23T02:47:49.412Z,81.96
2018-12-23T02:48:49.319Z,82.24
2018-12-23T02:49:49.340Z,82.14
2018-12-23T02:50:49.302Z,81.96
2018-12-23T02:51:49.301Z,82.03
2018-12-23T02:52:49.291Z,82.14
2018-12-23T02:53:49.268Z,82.14
2018-12-23T02:54:49.256Z,82.07
2018-12-23T02:55:49.247Z,81.41
2018-12-23T02:56:49.234Z,81.82
2018-12-23T02:57:49.237Z,82.03
2018-12-23T02:58:49.230Z,82.14
2018-12-23T02:59:49.221Z,81.41
2018-12-23T03:00:49.202Z,81.82
2018-12-23T03:01:49.251Z,81.62
2018-12-23T03:02:49.252Z,81.62
2018-12-23T03:03:49.159Z,81.72
2018-12-23T03:04:49.186Z,81.93
2018-12-23T03:05:49.128Z,81.89
2018-12-23T03:06:49.148Z,81.82
2018-12-23T03:07:49.129Z,81.93
2018-12-23T03:08:49.106Z,81.62
2018-12-23T03:09:49.085Z,81.82
2018-12-23T03:10:49.077Z,81.79
2018-12-23T03:11:49.074Z,81.89
2018-12-23T03:12:49.141Z,81.72
2018-12-23T03:13:49.066Z,81.82
2018-12-23T03:14:49.026Z,81.62
2018-12-23T03:15:49.023Z,81.93
2018-12-23T03:16:48.998Z,82.34
2018-12-23T03:17:49.017Z,82.45
2018-12-23T03:18:48.976Z,82.69
2018-12-23T03:19:48.995Z,82.55
2018-12-23T03:20:48.961Z,82.79
2018-12-23T03:21:48.951Z,82.48
2018-12-23T03:22:48.952Z,83.20
2018-12-23T03:23:48.935Z,83.41
2018-12-23T03:24:48.930Z,83.62
2018-12-23T03:25:48.904Z,83.51
2018-12-23T03:26:48.900Z,83.41
2018-12-23T03:27:48.897Z,83.48
2018-12-23T03:28:48.879Z,83.27
2018-12-23T03:29:48.864Z,83.20
2018-12-23T03:30:48.871Z,82.96
2018-12-23T03:31:48.851Z,82.96
2018-12-23T03:32:48.865Z,83.06
2018-12-23T03:33:48.809Z,82.96
2018-12-23T03:34:48.842Z,82.96
2018-12-23T03:35:48.795Z,82.55
2018-12-23T03:36:48.777Z,82.86
2018-12-23T03:37:48.799Z,82.96
2018-12-23T03:38:48.766Z,82.65
2018-12-23T03:39:48.747Z,82.61
2018-12-23T03:40:48.748Z,82.65
2018-12-23T03:41:48.734Z,82.34
2018-12-23T03:42:48.731Z,81.89
2018-12-23T03:43:48.708Z,82.65
2018-12-23T03:44:48.692Z,82.65
2018-12-23T03:45:48.730Z,82.55
2018-12-23T03:46:48.666Z,82.71
2018-12-23T03:47:48.697Z,82.61
2018-12-23T03:48:48.640Z,82.71
2018-12-23T03:49:48.649Z,82.40
2018-12-23T03:50:48.628Z,81.89
2018-12-23T03:51:48.613Z,82.24
2018-12-23T03:52:48.620Z,82.30
2018-12-23T03:53:48.592Z,82.51
2018-12-23T03:54:48.578Z,82.20
2018-12-23T03:55:49.545Z,82.10
2018-12-23T03:56:48.559Z,82.20
2018-12-23T03:57:48.583Z,82.20
2018-12-23T03:58:48.582Z,81.89
2018-12-23T03:59:48.521Z,81.89
2018-12-23T04:00:48.519Z,82.34
2018-12-23T04:01:48.490Z,82.34
2018-12-23T04:02:48.505Z,82.65
2018-12-23T04:03:48.496Z,82.55
2018-12-23T04:04:48.469Z,82.86
2018-12-23T04:05:48.462Z,83.06
2018-12-23T04:06:48.437Z,83.06
2018-12-23T04:07:48.430Z,83.00
2018-12-23T04:08:48.431Z,82.96
2018-12-23T04:09:48.443Z,82.75
2018-12-23T04:10:48.391Z,82.75
2018-12-23T04:11:48.398Z,82.75
2018-12-23T04:12:48.366Z,82.65
2018-12-23T04:13:48.393Z,82.96
2018-12-23T04:14:48.342Z,83.27
2018-12-23T04:15:48.364Z,82.86
2018-12-23T04:16:48.340Z,82.75
2018-12-23T04:17:48.323Z,82.71
2018-12-23T04:18:48.321Z,82.65
2018-12-23T04:19:48.292Z,82.75
2018-12-23T04:20:48.286Z,82.34
2018-12-23T04:21:48.281Z,82.30
2018-12-23T04:22:48.262Z,82.61
2018-12-23T04:23:48.258Z,82.30
2018-12-23T04:24:48.251Z,81.79
2018-12-23T04:25:48.221Z,82.40
2018-12-23T04:26:48.231Z,82.30
2018-12-23T04:27:48.193Z,81.93
2018-12-23T04:28:48.219Z,82.86
2018-12-23T04:29:48.173Z,82.86
2018-12-23T04:30:49.009Z,82.71
2018-12-23T04:31:48.246Z,82.96
2018-12-23T04:32:48.154Z,82.96
2018-12-23T04:33:48.150Z,82.86
2018-12-23T04:34:48.128Z,82.96
2018-12-23T04:35:48.147Z,82.86
2018-12-23T04:36:48.111Z,83.06
2018-12-23T04:37:48.105Z,82.40
2018-12-23T04:38:48.085Z,83.17
2018-12-23T04:39:48.074Z,83.37
2018-12-23T04:40:48.049Z,83.17
2018-12-23T04:41:48.039Z,83.06
2018-12-23T04:42:48.022Z,82.86
2018-12-23T04:43:48.082Z,83.27
2018-12-23T04:44:48.005Z,83.27
2018-12-23T04:45:48.004Z,83.37
2018-12-23T04:46:47.996Z,83.27
2018-12-23T04:47:47.986Z,83.37
2018-12-23T04:48:47.991Z,83.48
2018-12-23T04:49:47.952Z,83.27
2018-12-23T04:50:47.947Z,83.68
2018-12-23T04:51:47.930Z,84.09
2018-12-23T04:52:47.931Z,83.89
2018-12-23T04:53:47.913Z,83.89
2018-12-23T04:54:48.086Z,84.20
2018-12-23T04:55:47.875Z,83.89
2018-12-23T04:56:47.897Z,83.89
2018-12-23T04:57:47.855Z,84.61
2018-12-23T04:58:47.868Z,84.41
2018-12-23T04:59:47.836Z,84.30
2018-12-23T05:00:47.821Z,84.51
2018-12-23T05:01:47.849Z,83.89
2018-12-23T05:02:47.807Z,84.30
2018-12-23T05:03:48.080Z,84.61
2018-12-23T05:04:47.801Z,84.61
2018-12-23T05:05:47.801Z,84.81
2018-12-23T05:06:47.753Z,84.72
2018-12-23T05:07:47.753Z,84.30
2018-12-23T05:08:47.780Z,84.72
2018-12-23T05:09:47.775Z,84.72
2018-12-23T05:10:47.706Z,83.99
2018-12-23T05:11:48.512Z,84.27
2018-12-23T05:12:47.682Z,84.92
2018-12-23T05:13:47.728Z,84.78
2018-12-23T05:14:47.662Z,84.67
2018-12-23T05:15:47.662Z,84.47
2018-12-23T05:16:47.638Z,84.57
2018-12-23T05:17:47.626Z,84.88
2018-12-23T05:18:48.564Z,84.57
2018-12-23T05:19:47.617Z,84.47
2018-12-23T05:20:47.589Z,84.47
2018-12-23T05:21:47.573Z,84.47
2018-12-23T05:22:47.565Z,84.47
2018-12-23T05:23:47.549Z,84.36
2018-12-23T05:24:47.563Z,84.36
2018-12-23T05:25:47.602Z,84.61
2018-12-23T05:26:47.520Z,84.78
2018-12-23T05:27:47.507Z,85.02
2018-12-23T05:28:47.496Z,84.61
2018-12-23T05:29:47.492Z,84.81
2018-12-23T05:30:47.475Z,84.81
2018-12-23T05:31:47.458Z,85.13
2018-12-23T05:32:47.450Z,84.92
2018-12-23T05:33:47.441Z,85.85
2018-12-23T05:34:47.434Z,85.23
2018-12-23T05:35:47.411Z,85.02
2018-12-23T05:36:52.420Z,85.13
2018-12-23T05:37:48.389Z,85.13
2018-12-23T05:38:47.379Z,85.13
2018-12-23T05:39:47.383Z,85.13
2018-12-23T05:40:47.354Z,85.02
2018-12-23T05:41:47.343Z,85.33
2018-12-23T05:42:47.333Z,85.44
2018-12-23T05:43:47.320Z,85.75
2018-12-23T05:44:47.324Z,85.54
2018-12-23T05:45:47.297Z,85.33
2018-12-23T05:46:47.285Z,85.44
2018-12-23T05:47:47.275Z,85.85
2018-12-23T05:48:47.265Z,85.13
2018-12-23T05:49:47.273Z,85.44
2018-12-23T05:50:47.241Z,85.54
2018-12-23T05:51:47.230Z,85.33
2018-12-23T05:52:47.218Z,84.67
2018-12-23T05:53:47.205Z,85.09
2018-12-23T05:54:47.212Z,84.47
2018-12-23T05:55:47.182Z,84.88
2018-12-23T05:56:47.236Z,84.47
2018-12-23T05:57:47.161Z,84.47
2018-12-23T05:58:47.147Z,84.57
2018-12-23T05:59:47.147Z,84.78
2018-12-23T06:00:47.128Z,84.67
2018-12-23T06:01:47.115Z,84.67
2018-12-23T06:02:47.102Z,84.67
2018-12-23T06:03:47.094Z,84.57
2018-12-23T06:04:47.091Z,84.67
2018-12-23T06:05:47.071Z,84.78
2018-12-23T06:06:47.065Z,84.36
2018-12-23T06:07:47.045Z,84.47
2018-12-23T06:08:47.034Z,84.47
2018-12-23T06:09:47.039Z,84.43
2018-12-23T06:10:47.011Z,84.36
2018-12-23T06:11:46.998Z,84.64
2018-12-23T06:12:46.992Z,84.57
2018-12-23T06:13:46.981Z,84.47
2018-12-23T06:14:47.007Z,84.47
2018-12-23T06:15:46.958Z,84.47
2018-12-23T06:16:46.945Z,84.88
2018-12-23T06:17:46.931Z,84.67
2018-12-23T06:18:46.921Z,84.36
2018-12-23T06:19:46.911Z,84.47
2018-12-23T06:20:46.910Z,84.36
2018-12-23T06:21:46.889Z,84.57
2018-12-23T06:22:46.873Z,84.78
2018-12-23T06:23:46.869Z,85.09
2018-12-23T06:24:46.855Z,85.09
2018-12-23T06:25:46.862Z,84.57
2018-12-23T06:26:46.827Z,84.47
2018-12-23T06:27:46.818Z,84.36
2018-12-23T06:28:46.804Z,84.53
2018-12-23T06:29:46.792Z,84.57
2018-12-23T06:30:46.801Z,84.33
2018-12-23T06:31:46.772Z,84.43
2018-12-23T06:32:46.758Z,84.33
2018-12-23T06:33:46.754Z,84.33
2018-12-23T06:34:46.739Z,84.33
2018-12-23T06:35:46.736Z,84.88
2018-12-23T06:36:46.714Z,84.64
2018-12-23T06:37:46.700Z,84.47
2018-12-23T06:38:46.692Z,84.74
2018-12-23T06:39:46.683Z,84.43
2018-12-23T06:40:46.682Z,84.64
2018-12-23T06:41:46.655Z,84.53
2018-12-23T06:42:46.644Z,84.43
2018-12-23T06:43:46.635Z,84.43
2018-12-23T06:44:46.625Z,84.43
2018-12-23T06:45:46.623Z,84.43
2018-12-23T06:46:46.597Z,84.43
2018-12-23T06:47:46.586Z,84.49
2018-12-23T06:48:46.579Z,83.81
2018-12-23T06:49:46.563Z,83.81
2018-12-23T06:50:46.567Z,83.81
2018-12-23T06:51:46.545Z,83.91
2018-12-23T06:52:46.536Z,84.64
2018-12-23T06:53:46.519Z,84.74
2018-12-23T06:54:46.507Z,84.74
2018-12-23T06:55:46.506Z,84.70
2018-12-23T06:56:46.485Z,84.43
2018-12-23T06:57:46.480Z,84.64
2018-12-23T06:58:46.463Z,84.64
2018-12-23T06:59:46.452Z,84.19
2018-12-23T07:00:46.455Z,84.49
2018-12-23T07:01:46.431Z,83.98
2018-12-23T07:02:46.416Z,83.87
2018-12-23T07:03:46.408Z,83.81
2018-12-23T07:04:46.395Z,83.91
2018-12-23T07:05:46.399Z,83.71
2018-12-23T07:06:46.374Z,84.53
2018-12-23T07:07:46.361Z,84.12
2018-12-23T07:08:46.350Z,84.53
2018-12-23T07:09:46.343Z,84.64
2018-12-23T07:10:46.338Z,84.29
2018-12-23T07:11:46.318Z,84.64
2018-12-23T07:12:46.309Z,84.12
2018-12-23T07:13:46.291Z,84.64
2018-12-23T07:14:46.284Z,84.08
2018-12-23T07:15:46.282Z,84.22
2018-12-23T07:16:46.263Z,84.64
2018-12-23T07:17:46.253Z,84.74
2018-12-23T07:18:46.246Z,84.43
2018-12-23T07:19:46.226Z,84.74
2018-12-23T07:20:46.244Z,84.43
2018-12-23T07:21:46.201Z,84.08
2018-12-23T07:22:46.191Z,83.67
2018-12-23T07:23:46.183Z,83.77
2018-12-23T07:24:46.169Z,83.77
2018-12-23T07:25:46.157Z,83.81
2018-12-23T07:26:46.160Z,83.77
2018-12-23T07:27:46.134Z,83.98
2018-12-23T07:28:46.123Z,83.67
2018-12-23T07:29:46.114Z,83.98
2018-12-23T07:30:46.100Z,84.39
2018-12-23T07:31:46.099Z,83.77
2018-12-23T07:32:46.080Z,84.29
2018-12-23T07:33:46.067Z,83.98
2018-12-23T07:34:46.055Z,83.77
2018-12-23T07:35:46.043Z,83.87
2018-12-23T07:36:49.649Z,83.67
2018-12-23T07:37:46.018Z,84.29
2018-12-23T07:38:46.009Z,84.59
2018-12-23T07:39:45.998Z,83.87
2018-12-23T07:40:45.986Z,84.29
2018-12-23T07:41:45.987Z,83.87
2018-12-23T07:42:45.963Z,83.67
2018-12-23T07:43:45.950Z,84.49
2018-12-23T07:44:45.940Z,84.49
2018-12-23T07:45:45.929Z,83.98
2018-12-23T07:46:45.930Z,83.77
2018-12-23T07:47:45.905Z,83.87
2018-12-23T07:48:45.894Z,83.98
2018-12-23T07:49:45.882Z,84.08
2018-12-23T07:50:45.870Z,83.87
2018-12-23T07:51:45.878Z,84.59
2018-12-23T07:52:45.848Z,84.80
2018-12-23T07:53:45.838Z,84.29
2018-12-23T07:54:45.823Z,83.98
2018-12-23T07:55:45.815Z,83.77
2018-12-23T07:56:45.815Z,83.98
2018-12-23T07:57:45.789Z,83.67
2018-12-23T07:58:45.780Z,83.98
2018-12-23T07:59:45.768Z,83.87
2018-12-23T08:00:45.755Z,83.87
2018-12-23T08:01:46.523Z,83.36
2018-12-23T08:02:45.734Z,83.26
2018-12-23T08:03:45.720Z,83.77
2018-12-23T08:04:45.711Z,83.47
2018-12-23T08:05:45.697Z,83.98
2018-12-23T08:06:45.700Z,83.77
2018-12-23T08:07:45.676Z,83.67
2018-12-23T08:08:45.663Z,83.56
2018-12-23T08:09:45.650Z,83.36
2018-12-23T08:10:45.641Z,83.87
2018-12-23T08:11:45.640Z,83.77
2018-12-23T08:12:46.556Z,83.36
2018-12-23T08:13:45.607Z,83.56
2018-12-23T08:14:45.593Z,83.36
2018-12-23T08:15:45.587Z,83.22
2018-12-23T08:16:45.611Z,83.63
2018-12-23T08:17:45.560Z,83.15
2018-12-23T08:18:45.551Z,83.26
2018-12-23T08:19:45.544Z,83.56
2018-12-23T08:20:45.526Z,83.42
2018-12-23T08:21:45.514Z,83.12
2018-12-23T08:22:45.518Z,83.32
2018-12-23T08:23:45.492Z,83.32
2018-12-23T08:24:45.599Z,83.32
2018-12-23T08:25:45.471Z,83.12
2018-12-23T08:26:45.461Z,83.01
2018-12-23T08:27:45.457Z,83.15
2018-12-23T08:28:45.433Z,83.12
2018-12-23T08:29:45.425Z,82.91
2018-12-23T08:30:45.415Z,82.91
2018-12-23T08:31:45.400Z,83.32
2018-12-23T08:32:45.402Z,83.12
2018-12-23T08:33:45.377Z,83.22
2018-12-23T08:34:45.367Z,82.29
2018-12-23T08:35:53.401Z,82.70
2018-12-23T08:36:45.350Z,83.01
2018-12-23T08:37:45.368Z,82.91
2018-12-23T08:38:45.334Z,82.70
2018-12-23T08:39:45.315Z,82.50
2018-12-23T08:40:45.302Z,82.91
2018-12-23T08:41:45.290Z,82.50
2018-12-23T08:42:45.310Z,82.91
2018-12-23T08:43:45.262Z,82.70
2018-12-23T08:44:45.255Z,83.01
2018-12-23T08:45:45.244Z,82.50
2018-12-23T08:46:45.229Z,82.60
2018-12-23T08:47:45.229Z,82.60
2018-12-23T08:48:45.208Z,82.91
2018-12-23T08:49:45.196Z,82.60
2018-12-23T08:50:45.191Z,82.25
2018-12-23T08:51:45.953Z,82.50
2018-12-23T08:52:45.180Z,82.60
2018-12-23T08:53:45.169Z,82.81
2018-12-23T08:54:45.154Z,82.50
2018-12-23T08:55:45.163Z,82.56
2018-12-23T08:56:45.124Z,82.46
2018-12-23T08:57:45.182Z,82.46
2018-12-23T08:58:45.112Z,82.15
2018-12-23T08:59:45.115Z,81.95
2018-12-23T09:00:45.084Z,82.15
2018-12-23T09:01:45.092Z,81.95
2018-12-23T09:02:45.069Z,81.74
2018-12-23T09:03:45.064Z,82.05
2018-12-23T09:04:45.063Z,82.15
2018-12-23T09:05:45.056Z,81.74
2018-12-23T09:06:45.013Z,81.95
2018-12-23T09:07:52.843Z,82.15
2018-12-23T09:08:45.990Z,82.15
2018-12-23T09:09:44.987Z,82.05
2018-12-23T09:10:45.004Z,82.15
2018-12-23T09:11:44.959Z,81.91
2018-12-23T09:12:44.966Z,82.15
2018-12-23T09:13:44.940Z,82.05
2018-12-23T09:14:44.936Z,82.01
2018-12-23T09:15:44.916Z,82.56
2018-12-23T09:16:44.917Z,82.25
2018-12-23T09:17:44.884Z,81.81
2018-12-23T09:18:44.899Z,82.73
2018-12-23T09:19:44.863Z,82.63
2018-12-23T09:20:44.891Z,82.21
2018-12-23T09:21:44.844Z,81.70
2018-12-23T09:22:44.846Z,81.91
2018-12-23T09:23:44.907Z,81.70
2018-12-23T09:24:44.805Z,81.91
2018-12-23T09:25:44.848Z,81.91
2018-12-23T09:26:44.800Z,82.01
2018-12-23T09:27:44.809Z,82.11
2018-12-23T09:28:44.780Z,81.49
2018-12-23T09:29:44.812Z,81.29
2018-12-23T09:30:44.747Z,81.19
2018-12-23T09:31:44.752Z,81.39
2018-12-23T09:32:44.727Z,80.88
2018-12-23T09:33:44.765Z,81.29
2018-12-23T09:34:44.692Z,81.29
2018-12-23T09:35:44.753Z,81.49
2018-12-23T09:36:44.693Z,81.19
2018-12-23T09:37:44.693Z,80.88
2018-12-23T09:38:44.714Z,81.29
2018-12-23T09:39:44.673Z,81.49
2018-12-23T09:40:44.685Z,81.56
2018-12-23T09:41:44.618Z,81.29
2018-12-23T09:42:44.673Z,80.84
2018-12-23T09:43:44.608Z,80.63
2018-12-23T09:44:44.625Z,80.84
2018-12-23T09:45:44.567Z,80.47
2018-12-23T09:46:44.646Z,80.88
2018-12-23T09:47:44.542Z,80.77
2018-12-23T09:48:45.448Z,79.85
2018-12-23T09:49:44.530Z,80.47
2018-12-23T09:50:44.547Z,80.77
2018-12-23T09:51:44.528Z,80.63
2018-12-23T09:52:44.489Z,80.43
2018-12-23T09:53:44.517Z,80.47
2018-12-23T09:54:44.471Z,80.57
2018-12-23T09:55:44.496Z,80.05
2018-12-23T09:56:44.439Z,80.77
2018-12-23T09:57:44.460Z,80.53
2018-12-23T09:58:44.426Z,79.61
2018-12-23T09:59:44.500Z,80.74
2018-12-23T10:00:44.399Z,80.43
2018-12-23T10:01:44.419Z,80.16
2018-12-23T10:02:44.367Z,80.33
2018-12-23T10:03:44.375Z,80.16
2018-12-23T10:04:44.348Z,80.63
2018-12-23T10:05:44.341Z,80.74
2018-12-23T10:06:44.360Z,81.15
2018-12-23T10:07:44.314Z,80.94
2018-12-23T10:08:44.429Z,80.84
2018-12-23T10:09:44.310Z,80.84
2018-12-23T10:10:44.333Z,80.94
2018-12-23T10:11:44.282Z,81.19
2018-12-23T10:12:44.313Z,80.94
2018-12-23T10:13:44.289Z,80.74
2018-12-23T10:14:44.283Z,80.84
2018-12-23T10:15:44.241Z,80.94
2018-12-23T10:16:44.275Z,80.43
2018-12-23T10:17:44.246Z,80.74
2018-12-23T10:18:44.233Z,80.74
2018-12-23T10:19:44.224Z,80.84
2018-12-23T10:20:44.186Z,80.02
2018-12-23T10:21:44.224Z,80.63
2018-12-23T10:22:44.190Z,80.63
2018-12-23T10:23:45.173Z,80.94
2018-12-23T10:24:44.133Z,81.15
2018-12-23T10:25:47.125Z,80.84
2018-12-23T10:26:44.132Z,80.43
2018-12-23T10:27:44.237Z,80.33
2018-12-23T10:28:44.104Z,80.49
2018-12-23T10:29:44.148Z,80.80
2018-12-23T10:30:44.064Z,80.70
2018-12-23T10:31:44.136Z,80.49
2018-12-23T10:32:44.047Z,80.60
2018-12-23T10:33:44.070Z,79.16
2018-12-23T10:34:44.862Z,79.77
2018-12-23T10:35:44.004Z,79.67
2018-12-23T10:36:44.019Z,79.77
2018-12-23T10:37:43.986Z,79.77
2018-12-23T10:38:44.040Z,79.47
2018-12-23T10:39:43.964Z,79.91
2018-12-23T10:40:43.999Z,78.64
2018-12-23T10:41:43.950Z,79.40
2018-12-23T10:42:44.042Z,79.09
2018-12-23T10:43:51.309Z,79.30
2018-12-23T10:44:44.230Z,79.30
2018-12-23T10:46:59.957Z,79.09
2018-12-23T10:47:59.897Z,79.09
2018-12-23T10:48:59.928Z,79.36
2018-12-23T10:49:59.877Z,79.09
2018-12-23T10:50:59.863Z,79.57
2018-12-23T10:51:59.844Z,79.16
2018-12-23T10:52:59.835Z,79.05
2018-12-23T10:53:59.828Z,79.09
2018-12-23T10:54:59.855Z,78.85
2018-12-23T10:55:59.806Z,78.75
2018-12-23T10:56:59.807Z,78.85
2018-12-23T10:57:59.784Z,78.96
2018-12-23T10:58:59.802Z,78.85
2018-12-23T10:59:59.769Z,78.33
2018-12-23T11:00:59.942Z,78.23
2018-12-23T11:01:59.883Z,78.96
2018-12-23T11:02:59.744Z,78.64
2018-12-23T11:03:59.717Z,78.64
2018-12-23T11:04:59.724Z,78.33
2018-12-23T11:05:59.709Z,78.23
2018-12-23T11:06:59.692Z,78.30
2018-12-23T11:07:59.675Z,78.40
2018-12-23T11:08:59.668Z,78.44
2018-12-23T11:10:02.289Z,77.82
2018-12-23T11:10:59.639Z,78.75
2018-12-23T11:11:59.625Z,77.41
2018-12-23T11:12:59.613Z,77.17
2018-12-23T11:13:59.607Z,77.58
2018-12-23T11:14:59.606Z,76.90
2018-12-23T11:15:59.592Z,76.86
2018-12-23T11:16:59.578Z,77.27
2018-12-23T11:17:59.557Z,77.48
2018-12-23T11:18:59.543Z,77.17
2018-12-23T11:19:59.556Z,76.90
2018-12-23T11:20:59.536Z,76.76
2018-12-23T11:21:59.529Z,77.37
2018-12-23T11:22:59.503Z,76.97
2018-12-23T11:23:59.494Z,77.20
2018-12-23T11:24:59.489Z,77.48
2018-12-23T11:25:59.462Z,77.37
2018-12-23T11:26:59.449Z,76.45
2018-12-23T11:27:59.467Z,77.37
2018-12-23T11:28:59.431Z,76.55
2018-12-23T11:29:59.466Z,77.48
2018-12-23T11:30:59.413Z,77.37
2018-12-23T11:31:59.408Z,77.58
2018-12-23T11:32:59.490Z,78.30
2018-12-23T11:33:59.389Z,78.50
2018-12-23T11:34:59.396Z,78.09
2018-12-23T11:35:59.423Z,79.02
2018-12-23T11:36:59.345Z,78.81
2018-12-23T11:37:59.335Z,77.78
2018-12-23T11:38:59.329Z,78.50
2018-12-23T11:39:59.341Z,78.92
2018-12-23T11:40:59.366Z,78.85
2018-12-23T11:41:59.291Z,78.96
2018-12-23T11:42:59.351Z,79.05
2018-12-23T11:43:59.354Z,78.85
2018-12-23T11:44:59.377Z,78.96
2018-12-23T11:45:59.353Z,79.05
2018-12-23T11:46:59.237Z,78.85
2018-12-23T11:47:59.223Z,79.16
2018-12-23T11:48:59.226Z,79.36
2018-12-23T11:49:59.221Z,79.50
2018-12-23T11:50:59.199Z,79.50
2018-12-23T11:51:59.209Z,79.30
2018-12-23T11:52:59.220Z,79.26
2018-12-23T11:53:59.155Z,79.77
2018-12-23T11:54:59.181Z,79.47
2018-12-23T11:55:59.139Z,79.16
2018-12-23T11:56:59.163Z,79.19
2018-12-23T11:57:59.148Z,79.16
2018-12-23T11:58:59.099Z,78.96
2018-12-23T11:59:59.146Z,78.85
2018-12-23T12:00:59.080Z,79.05
2018-12-23T12:01:59.089Z,79.16
2018-12-23T12:02:59.053Z,79.40
2018-12-23T12:03:59.043Z,79.36
2018-12-23T12:04:59.041Z,79.16
2018-12-23T12:05:59.020Z,79.57
2018-12-23T12:06:59.009Z,79.09
2018-12-23T12:07:59.006Z,79.05
2018-12-23T12:09:06.815Z,79.05
2018-12-23T12:09:59.012Z,79.05
2018-12-23T12:10:59.082Z,79.05
2018-12-23T12:11:59.003Z,78.96
2018-12-23T12:12:58.966Z,79.05
2018-12-23T12:13:59.796Z,79.47
2018-12-23T12:14:58.973Z,79.47
2018-12-23T12:15:58.944Z,79.05
2018-12-23T12:16:58.939Z,79.26
2018-12-23T12:17:58.916Z,78.96
2018-12-23T12:18:59.799Z,78.96
2018-12-23T12:19:58.910Z,78.54
2018-12-23T12:20:58.939Z,78.96
2018-12-23T12:21:58.873Z,79.16
2018-12-23T12:22:58.868Z,78.75
2018-12-23T12:23:58.841Z,78.64
2018-12-23T12:24:58.821Z,78.96
2018-12-23T12:25:59.369Z,78.54
2018-12-23T12:26:58.849Z,79.47
2018-12-23T12:27:58.824Z,79.36
2018-12-23T12:28:58.793Z,79.19
2018-12-23T12:29:58.770Z,79.71
2018-12-23T12:30:58.789Z,79.91
2018-12-23T12:31:58.750Z,80.43
2018-12-23T12:32:58.724Z,80.74
2018-12-23T12:33:58.750Z,80.74
2018-12-23T12:34:59.259Z,81.46
2018-12-23T12:35:58.941Z,81.25
2018-12-23T12:36:58.716Z,81.46
2018-12-23T12:37:58.711Z,81.97
2018-12-23T12:38:58.727Z,81.87
2018-12-23T12:39:58.776Z,82.07
2018-12-23T12:40:58.681Z,81.76
2018-12-23T12:41:58.688Z,81.25
2018-12-23T12:42:58.630Z,82.04
2018-12-23T12:43:58.614Z,81.97
2018-12-23T12:44:58.608Z,81.83
2018-12-23T12:46:00.592Z,81.93
2018-12-23T12:46:58.579Z,81.97
2018-12-23T12:47:58.568Z,81.62
2018-12-23T12:48:58.545Z,81.62
2018-12-23T12:49:58.565Z,81.67
2018-12-23T12:50:58.601Z,81.15
2018-12-23T12:51:58.521Z,81.15
2018-12-23T12:52:58.521Z,81.25
2018-12-23T12:53:58.492Z,80.33